Time;durP1;ratioP1;P1;durP2;ratioP2;P2;SDS_P1;SDS_P2;PMS_P1;PMS_P2;Temp;Humidity;BMP_temperature;BMP_pressure;BME280_temperature;BME280_humidity;BME280_pressure;Samples;Min_cycle;Max_cycle;Signal;HPM_P1;HPM_P2
2023/08/09 00:00:55;;;;;;;8.43;4.93;;;;;;;23.49;59.75;101325.75;5029523;28;20030;-71
2023/08/09 00:03:20;;;;;;;7.90;5.15;;;;;;;23.66;58.78;101319.44;5042132;28;20129;-71
2023/08/09 00:05:46;;;;;;;8.70;4.97;;;;;;;23.59;58.94;101326.09;5009728;28;20109;-72
2023/08/09 00:08:11;;;;;;;11.80;5.85;;;;;;;23.18;60.28;101329.28;5031535;28;20100;-71
2023/08/09 00:10:37;;;;;;;9.65;5.15;;;;;;;23.19;60.22;101320.31;5028558;28;20037;-71
2023/08/09 00:13:03;;;;;;;7.45;4.78;;;;;;;23.26;61.05;101320.84;5040074;28;20034;-71
2023/08/09 00:15:29;;;;;;;8.75;5.43;;;;;;;23.18;60.29;101319.47;5023151;28;20082;-71
2023/08/09 00:17:55;;;;;;;12.57;5.25;;;;;;;23.32;60.86;101320.50;5027006;28;20144;-71
2023/08/09 00:20:20;;;;;;;6.65;4.35;;;;;;;23.28;60.55;101329.63;5029431;28;20072;-71
2023/08/09 00:22:46;;;;;;;9.50;5.03;;;;;;;23.47;58.98;101340.13;5028000;28;20033;-71
2023/08/09 00:25:12;;;;;;;10.23;4.85;;;;;;;23.47;58.59;101340.97;5028595;28;20371;-71
2023/08/09 00:27:38;;;;;;;8.82;5.35;;;;;;;23.61;58.15;101339.34;5029380;28;20029;-71
2023/08/09 00:30:05;;;;;;;7.18;4.82;;;;;;;23.63;57.77;101340.09;5024458;28;20033;-71
2023/08/09 00:32:30;;;;;;;10.45;5.15;;;;;;;23.41;58.59;101341.34;5027603;28;20163;-71
2023/08/09 00:34:56;;;;;;;9.38;5.38;;;;;;;23.15;60.02;101346.31;5024051;28;20537;-71
2023/08/09 00:37:21;;;;;;;8.52;4.95;;;;;;;23.10;60.46;101348.31;5011323;28;20034;-71
2023/08/09 00:39:48;;;;;;;8.50;5.25;;;;;;;23.08;60.16;101347.56;5027907;28;20017;-71
2023/08/09 00:42:14;;;;;;;9.00;5.82;;;;;;;23.26;59.17;101343.03;5043972;28;20029;-71
2023/08/09 00:44:39;;;;;;;7.28;4.70;;;;;;;23.33;58.78;101349.75;5022150;28;20455;-71
2023/08/09 00:47:09;;;;;;;9.18;5.60;;;;;;;23.13;59.34;101353.50;5025014;28;20037;-71
2023/08/09 00:49:38;;;;;;;9.45;4.95;;;;;;;23.04;59.43;101346.00;5029762;28;20025;-70
2023/08/09 00:52:05;;;;;;;9.38;5.20;;;;;;;23.16;59.38;101348.03;5028331;28;20033;-71
2023/08/09 00:54:30;;;;;;;9.48;5.25;;;;;;;23.24;58.34;101338.75;5029673;28;20024;-72
2023/08/09 00:56:56;;;;;;;11.18;5.68;;;;;;;23.13;59.74;101342.84;5029589;28;20118;-71
2023/08/09 00:59:22;;;;;;;8.32;5.22;;;;;;;23.03;59.63;101346.94;5041304;28;20428;-71
2023/08/09 01:01:47;;;;;;;9.77;5.07;;;;;;;23.00;60.35;101347.97;5028935;28;20030;-72
2023/08/09 01:04:13;;;;;;;9.40;5.47;;;;;;;22.95;59.94;101341.16;5028458;28;20076;-71
2023/08/09 01:07:14;;;;;;;6.95;4.57;;;;;;;22.94;60.20;101347.44;5028305;28;20449;-71
2023/08/09 01:09:49;;;;;;;12.98;6.05;;;;;;;23.03;59.65;101352.28;5010071;28;20046;-71
2023/08/09 01:12:20;;;;;;;13.73;5.60;;;;;;;22.95;59.99;101349.16;5027987;28;20037;-72
2023/08/09 01:14:53;;;;;;;9.30;5.32;;;;;;;23.16;58.67;101358.69;5020471;28;20029;-71
2023/08/09 01:17:21;;;;;;;9.00;5.55;;;;;;;23.00;59.53;101357.78;5017480;28;20124;-71
2023/08/09 01:19:51;;;;;;;14.35;6.88;;;;;;;23.18;58.51;101355.94;5028661;28;20031;-71
2023/08/09 01:22:21;;;;;;;8.40;4.97;;;;;;;23.39;57.16;101353.88;5029397;28;20037;-72
2023/08/09 01:24:48;;;;;;;13.20;5.65;;;;;;;23.55;56.21;101360.06;5028350;28;20103;-71
2023/08/09 01:27:13;;;;;;;11.57;6.03;;;;;;;23.15;57.24;101359.63;5035365;28;20022;-72
2023/08/09 01:29:39;;;;;;;7.20;5.05;;;;;;;23.38;56.80;101362.81;5019153;28;20033;-72
2023/08/09 01:32:05;;;;;;;8.93;5.13;;;;;;;23.27;56.62;101360.75;5022741;28;20044;-71
2023/08/09 01:34:31;;;;;;;13.00;6.45;;;;;;;22.95;57.64;101351.81;5011196;28;20037;-71
2023/08/09 01:37:20;;;;;;;8.00;4.47;;;;;;;23.20;56.83;101349.59;5016192;28;20423;-71
2023/08/09 01:39:49;;;;;;;10.82;6.15;;;;;;;23.01;58.64;101354.16;5016199;28;20033;-71
2023/08/09 01:42:16;;;;;;;12.35;5.88;;;;;;;22.96;58.83;101361.56;5028033;28;20037;-71
2023/08/09 01:44:42;;;;;;;12.60;6.45;;;;;;;22.89;59.24;101363.69;5013698;28;20041;-71
2023/08/09 01:47:09;;;;;;;8.80;5.55;;;;;;;22.79;59.50;101360.66;5032333;28;20442;-71
2023/08/09 01:49:47;;;;;;;12.48;6.85;;;;;;;22.84;59.78;101361.25;5031077;28;20033;-70
2023/08/09 01:52:13;;;;;;;12.52;6.25;;;;;;;22.80;59.49;101362.34;5031172;28;20037;-71
2023/08/09 01:54:39;;;;;;;9.25;6.10;;;;;;;23.24;57.90;101368.91;5032610;28;20029;-71
2023/08/09 01:57:04;;;;;;;10.27;6.28;;;;;;;23.00;58.12;101368.44;5021968;28;20050;-71
2023/08/09 01:59:30;;;;;;;10.18;6.05;;;;;;;22.83;58.71;101367.53;5015637;28;20029;-71
2023/08/09 02:01:55;;;;;;;12.63;6.40;;;;;;;22.82;59.43;101376.47;5026566;28;20037;-71
2023/08/09 02:04:21;;;;;;;11.38;6.20;;;;;;;22.79;59.34;101376.63;5012386;28;20026;-71
2023/08/09 02:06:46;;;;;;;11.95;6.60;;;;;;;22.80;59.24;101383.66;5013202;28;20036;-71
2023/08/09 02:09:12;;;;;;;14.07;7.55;;;;;;;22.80;58.98;101383.66;5028152;28;20068;-71
2023/08/09 02:11:37;;;;;;;11.68;6.90;;;;;;;22.82;58.34;101378.25;5026856;28;20029;-71
2023/08/09 02:14:03;;;;;;;14.15;7.93;;;;;;;22.82;59.16;101384.47;5019120;28;20028;-71
2023/08/09 02:16:29;;;;;;;14.38;7.60;;;;;;;22.80;58.57;101390.81;5030358;28;20051;-71
2023/08/09 02:18:54;;;;;;;11.25;6.70;;;;;;;22.85;58.62;101386.97;5030852;28;20539;-71
2023/08/09 02:21:21;;;;;;;15.50;7.32;;;;;;;22.88;58.58;101388.59;5047328;28;20576;-71
2023/08/09 02:23:47;;;;;;;14.57;7.65;;;;;;;22.73;59.72;101392.94;5029741;28;20489;-71
2023/08/09 02:26:14;;;;;;;12.73;7.10;;;;;;;23.16;57.48;101396.03;5021194;28;20053;-71
2023/08/09 02:28:39;;;;;;;12.98;7.70;;;;;;;23.21;56.78;101395.75;5018837;28;20033;-71
2023/08/09 02:31:08;;;;;;;15.18;7.22;;;;;;;23.18;56.62;101394.13;5031966;28;20083;-71
2023/08/09 02:33:33;;;;;;;13.10;6.30;;;;;;;22.85;57.91;101392.28;5047284;28;20026;-71
2023/08/09 02:36:00;;;;;;;12.32;7.07;;;;;;;23.21;56.79;101401.94;5028382;28;20580;-71
2023/08/09 02:38:28;;;;;;;12.60;7.03;;;;;;;23.03;57.58;101403.78;5012963;28;20030;-71
2023/08/09 02:40:55;;;;;;;10.13;6.47;;;;;;;23.08;56.99;101406.22;5025266;28;20038;-71
2023/08/09 02:43:24;;;;;;;12.77;6.97;;;;;;;23.20;56.21;101402.91;5027825;28;20030;-71
2023/08/09 02:45:50;;;;;;;15.23;6.90;;;;;;;22.66;58.37;101412.84;5011693;28;20042;-71
2023/08/09 02:48:15;;;;;;;13.60;6.72;;;;;;;22.43;60.48;101414.03;5029610;28;20033;-71
2023/08/09 02:50:42;;;;;;;13.50;6.47;;;;;;;22.72;59.12;101401.00;5033763;28;20036;-71
2023/08/09 02:53:08;;;;;;;15.60;6.82;;;;;;;22.47;59.95;101413.78;5031183;28;20155;-72
2023/08/09 02:55:35;;;;;;;14.98;7.00;;;;;;;22.82;58.61;101419.09;5031402;28;20121;-71
2023/08/09 02:58:05;;;;;;;15.32;7.30;;;;;;;22.62;59.58;101412.13;5046309;28;20452;-71
2023/08/09 03:00:32;;;;;;;11.18;6.13;;;;;;;22.80;59.46;101420.97;5030105;28;20026;-71
2023/08/09 03:02:58;;;;;;;15.30;7.53;;;;;;;22.66;59.80;101418.19;5029818;28;20446;-71
2023/08/09 03:05:24;;;;;;;14.40;6.70;;;;;;;22.89;58.88;101416.97;5030469;28;20052;-71
2023/08/09 03:07:49;;;;;;;16.75;7.43;;;;;;;22.95;58.37;101415.78;5029504;28;20079;-71
2023/08/09 03:10:15;;;;;;;11.98;7.00;;;;;;;22.80;58.24;101420.97;5030689;28;20037;-71
2023/08/09 03:12:40;;;;;;;15.48;7.55;;;;;;;22.88;58.33;101424.09;5031170;28;20094;-71
2023/08/09 03:15:06;;;;;;;16.40;7.38;;;;;;;22.74;58.78;101425.75;5029485;28;20029;-72
2023/08/09 03:17:32;;;;;;;15.23;7.53;;;;;;;22.98;58.22;101428.94;5029612;28;20359;-71
2023/08/09 03:19:57;;;;;;;12.98;7.20;;;;;;;23.00;58.21;101429.75;5029380;28;20033;-71
2023/08/09 03:22:24;;;;;;;11.68;6.30;;;;;;;23.04;57.52;101436.63;5034221;28;20037;-71
2023/08/09 03:24:50;;;;;;;14.20;6.30;;;;;;;22.96;58.06;101430.84;5020867;28;20025;-71
2023/08/09 03:27:16;;;;;;;12.75;6.38;;;;;;;22.82;58.51;101437.75;5031679;28;20112;-71
2023/08/09 03:29:42;;;;;;;11.40;5.50;;;;;;;23.21;57.21;101435.75;5029495;28;20120;-72
2023/08/09 03:32:08;;;;;;;12.32;5.90;;;;;;;23.58;55.71;101427.56;5029436;28;20360;-71
2023/08/09 03:34:33;;;;;;;13.85;6.05;;;;;;;23.53;54.70;101431.34;5029933;28;20067;-71
2023/08/09 03:37:00;;;;;;;9.93;5.45;;;;;;;23.41;54.96;101432.03;5045237;28;20128;-71
2023/08/09 03:39:26;;;;;;;9.80;5.60;;;;;;;23.28;55.49;101433.63;5029326;28;20120;-71
2023/08/09 03:41:51;;;;;;;9.02;5.70;;;;;;;23.19;55.60;101443.84;5024934;28;20045;-71
2023/08/09 03:44:17;;;;;;;7.95;4.75;;;;;;;23.16;55.98;101444.00;5011188;28;20574;-71
2023/08/09 03:46:42;;;;;;;9.68;4.82;;;;;;;23.05;56.71;101430.34;5025453;28;20033;-71
2023/08/09 03:49:08;;;;;;;7.75;4.97;;;;;;;23.14;56.46;101440.56;5028190;28;20478;-71
2023/08/09 03:51:33;;;;;;;9.82;5.05;;;;;;;23.18;56.08;101447.44;5026105;28;20034;-71
2023/08/09 03:54:00;;;;;;;8.70;5.10;;;;;;;22.93;57.12;101458.53;5010837;28;20044;-71
2023/08/09 03:56:26;;;;;;;10.38;5.13;;;;;;;22.94;57.50;101462.03;5023616;28;20081;-70
2023/08/09 03:58:51;;;;;;;7.35;4.75;;;;;;;22.90;57.30;101460.47;5011680;28;20037;-71
2023/08/09 04:01:17;;;;;;;8.77;5.38;;;;;;;22.83;58.43;101458.16;5010145;28;20034;-73
2023/08/09 04:03:42;;;;;;;8.27;5.07;;;;;;;23.02;56.74;101458.03;5036783;28;20390;-74
2023/08/09 04:06:08;;;;;;;7.80;4.53;;;;;;;23.10;56.68;101464.78;5029335;28;20044;-73
2023/08/09 04:08:33;;;;;;;8.63;5.18;;;;;;;23.23;55.93;101459.66;5033069;28;20127;-73
2023/08/09 04:11:04;;;;;;;8.65;4.95;;;;;;;22.96;56.66;101462.84;5027602;28;20041;-73
2023/08/09 04:13:30;;;;;;;9.60;4.53;;;;;;;22.92;57.13;101469.28;5029345;28;20037;-73
2023/08/09 04:15:55;;;;;;;5.88;4.03;;;;;;;22.78;58.03;101478.84;5020393;28;20033;-73
2023/08/09 04:18:21;;;;;;;8.48;4.50;;;;;;;22.71;58.85;101474.75;5010600;28;20042;-74
2023/08/09 04:20:47;;;;;;;8.85;5.25;;;;;;;22.84;58.24;101481.16;5028704;28;20056;-73
2023/08/09 04:23:12;;;;;;;8.18;5.32;;;;;;;22.93;58.46;101489.63;5022796;28;20036;-73
2023/08/09 04:25:38;;;;;;;10.13;5.22;;;;;;;23.20;57.29;101493.56;5027642;28;20052;-73
2023/08/09 04:28:04;;;;;;;10.48;5.40;;;;;;;23.38;56.23;101486.38;5045320;28;20112;-73
2023/08/09 04:30:29;;;;;;;11.40;6.07;;;;;;;23.40;56.48;101483.63;5028573;28;20478;-73
2023/08/09 04:32:55;;;;;;;12.07;6.47;;;;;;;23.17;57.77;101488.38;5029135;28;20467;-73
2023/08/09 04:35:23;;;;;;;12.02;5.50;;;;;;;23.21;57.67;101494.41;5028715;28;20068;-73
2023/08/09 04:37:48;;;;;;;7.50;4.70;;;;;;;23.30;57.96;101488.59;5029106;28;20098;-73
2023/08/09 04:40:14;;;;;;;9.27;5.60;;;;;;;23.52;56.96;101493.66;5043992;28;20573;-73
2023/08/09 04:42:41;;;;;;;8.27;4.85;;;;;;;23.18;58.40;101495.44;5045107;28;20030;-73
2023/08/09 04:45:11;;;;;;;12.93;5.63;;;;;;;23.21;58.60;101489.94;5028706;28;20041;-73
2023/08/09 04:47:37;;;;;;;10.35;5.65;;;;;;;23.12;58.91;101501.09;5045318;28;20041;-73
2023/08/09 04:50:04;;;;;;;9.95;5.05;;;;;;;23.39;58.22;101503.25;5028129;28;20044;-73
2023/08/09 04:52:31;;;;;;;12.50;6.40;;;;;;;23.55;58.06;101504.13;5034519;28;20501;-72
2023/08/09 04:54:56;;;;;;;12.93;6.15;;;;;;;23.27;58.21;101504.75;5018488;28;20036;-73
2023/08/09 04:57:23;;;;;;;15.38;6.60;;;;;;;22.69;61.18;101508.59;5029384;28;20061;-73
2023/08/09 04:59:48;;;;;;;10.60;5.93;;;;;;;23.33;59.40;101508.91;5029918;28;20477;-72
2023/08/09 05:02:14;;;;;;;13.15;7.07;;;;;;;23.18;60.21;101506.09;5029055;28;20048;-73
2023/08/09 05:04:39;;;;;;;12.27;6.63;;;;;;;22.99;61.07;101505.31;5029484;28;20127;-72
2023/08/09 05:07:05;;;;;;;10.50;6.22;;;;;;;23.44;60.32;101506.53;5028672;28;20832;-73
2023/08/09 05:09:34;;;;;;;12.10;6.22;;;;;;;23.24;60.18;101499.59;5018154;28;20038;-73
2023/08/09 05:11:59;;;;;;;12.55;7.00;;;;;;;22.71;64.60;101512.06;5012423;28;20045;-73
2023/08/09 05:14:28;;;;;;;12.55;6.82;;;;;;;22.08;67.06;101508.00;5028922;28;20038;-73
2023/08/09 05:16:54;;;;;;;12.68;6.90;;;;;;;23.14;64.07;101517.88;5028639;28;20026;-73
2023/08/09 05:19:20;;;;;;;12.88;6.65;;;;;;;23.41;60.85;101512.03;5046167;28;20038;-73
2023/08/09 05:21:48;;;;;;;14.65;7.05;;;;;;;23.43;61.63;101510.13;5031149;28;20037;-73
2023/08/09 05:24:14;;;;;;;13.77;6.65;;;;;;;23.02;63.73;101511.34;5024719;28;20037;-73
2023/08/09 05:26:39;;;;;;;11.23;6.38;;;;;;;22.99;64.58;101515.97;5031400;28;20029;-73
2023/08/09 05:29:05;;;;;;;11.05;6.07;;;;;;;23.46;61.19;101515.28;5030981;28;20037;-73
2023/08/09 05:31:31;;;;;;;12.63;6.07;;;;;;;23.83;60.61;101507.97;5031906;28;20029;-73
2023/08/09 05:33:56;;;;;;;12.57;6.63;;;;;;;23.42;62.30;101513.75;5032421;28;20083;-73
2023/08/09 05:36:22;;;;;;;10.00;5.70;;;;;;;23.78;60.64;101523.38;5031296;28;20492;-72
2023/08/09 05:38:48;;;;;;;13.88;5.78;;;;;;;23.93;59.85;101519.00;5016802;28;20033;-73
2023/08/09 05:41:14;;;;;;;10.43;5.43;;;;;;;23.99;58.69;101520.50;5012068;28;20493;-73
2023/08/09 05:43:39;;;;;;;13.18;6.75;;;;;;;23.80;59.94;101534.81;5012982;28;20029;-73
2023/08/09 05:46:05;;;;;;;12.45;6.30;;;;;;;23.38;61.06;101530.84;5049473;28;20487;-73
2023/08/09 05:48:30;;;;;;;11.55;6.20;;;;;;;22.77;63.97;101541.06;5024108;28;20064;-73
2023/08/09 05:50:56;;;;;;;10.90;5.47;;;;;;;23.16;62.16;101540.00;5042909;28;20029;-73
2023/08/09 05:53:21;;;;;;;12.73;6.07;;;;;;;23.55;60.68;101536.16;5031155;28;20105;-73
2023/08/09 05:55:47;;;;;;;12.52;6.15;;;;;;;23.88;59.81;101553.97;5030294;28;20057;-73
2023/08/09 05:58:13;;;;;;;11.73;5.18;;;;;;;23.79;59.80;101550.94;5029949;28;20608;-73
2023/08/09 06:00:38;;;;;;;15.32;6.53;;;;;;;23.72;59.87;101561.06;5011001;28;20038;-74
2023/08/09 06:03:04;;;;;;;10.18;5.45;;;;;;;22.58;64.82;101564.22;5027253;28;20030;-73
2023/08/09 06:05:29;;;;;;;9.85;5.97;;;;;;;23.09;63.49;101567.00;5030829;28;20037;-74
2023/08/09 06:07:55;;;;;;;15.73;6.50;;;;;;;23.86;61.74;101571.88;5032881;28;20132;-73
2023/08/09 06:10:25;;;;;;;13.15;6.47;;;;;;;23.96;61.65;101566.03;5013296;28;20042;-73
2023/08/09 06:12:53;;;;;;;9.93;5.90;;;;;;;23.65;63.67;101567.69;5011345;28;20046;-73
2023/08/09 06:15:20;;;;;;;14.68;6.00;;;;;;;24.29;60.26;101559.75;5027876;28;20113;-73
2023/08/09 06:17:46;;;;;;;8.38;5.18;;;;;;;23.38;62.30;101566.41;5010279;28;20034;-73
2023/08/09 06:20:14;;;;;;;9.00;4.65;;;;;;;23.74;63.17;101566.31;5012403;28;20059;-73
2023/08/09 06:22:40;;;;;;;7.85;4.80;;;;;;;24.11;60.75;101569.66;5022392;28;20268;-74
2023/08/09 06:25:08;;;;;;;8.75;4.95;;;;;;;23.93;61.77;101567.06;5016238;28;20033;-73
2023/08/09 06:27:34;;;;;;;8.13;4.80;;;;;;;24.45;59.86;101568.63;5046767;28;20029;-73
2023/08/09 06:30:00;;;;;;;6.80;4.28;;;;;;;22.40;68.92;101572.16;5030399;28;20044;-72
2023/08/09 06:32:26;;;;;;;11.82;5.28;;;;;;;23.96;63.40;101571.38;5034401;28;20025;-72
2023/08/09 06:34:52;;;;;;;8.00;4.75;;;;;;;24.03;61.58;101578.97;5030022;28;20075;-72
2023/08/09 06:37:17;;;;;;;9.52;4.05;;;;;;;24.24;61.55;101580.56;5030957;28;20025;-72
2023/08/09 06:39:43;;;;;;;7.13;4.55;;;;;;;24.09;61.84;101580.44;5029841;28;20033;-72
2023/08/09 06:42:11;;;;;;;9.15;4.65;;;;;;;24.04;62.54;101585.16;5010867;28;20045;-72
2023/08/09 06:44:37;;;;;;;8.32;4.20;;;;;;;24.70;60.99;101585.94;5027162;28;20042;-71
2023/08/09 06:47:03;;;;;;;8.00;4.68;;;;;;;24.59;60.50;101591.88;5012522;28;20037;-72
2023/08/09 06:49:28;;;;;;;6.30;4.00;;;;;;;24.51;60.14;101589.66;5012075;28;20030;-71
2023/08/09 06:51:55;;;;;;;4.93;3.22;;;;;;;24.86;61.17;101584.13;5029570;28;20029;-72
2023/08/09 06:54:20;;;;;;;9.50;5.28;;;;;;;24.68;62.44;101590.53;5038186;28;20037;-72
2023/08/09 06:56:46;;;;;;;12.75;3.95;;;;;;;23.97;63.68;101587.31;5032822;28;20435;-72
2023/08/09 06:59:11;;;;;;;5.75;3.38;;;;;;;24.91;61.91;101597.22;5029711;28;20385;-73
2023/08/09 07:01:37;;;;;;;5.53;3.08;;;;;;;24.74;60.19;101598.19;5031033;28;20025;-72
2023/08/09 07:04:02;;;;;;;4.10;2.83;;;;;;;27.01;56.49;101589.47;5029870;28;20029;-72
2023/08/09 07:06:27;;;;;;;4.78;2.97;;;;;;;28.02;52.42;101588.78;5030738;28;20444;-72
2023/08/09 07:08:53;;;;;;;3.72;2.38;;;;;;;28.51;46.93;101588.81;5025708;28;20064;-72
2023/08/09 07:11:22;;;;;;;2.05;1.65;;;;;;;28.58;48.02;101593.63;5020342;28;20025;-72
2023/08/09 07:13:48;;;;;;;3.42;1.85;;;;;;;29.81;43.45;101587.84;5030058;28;20128;-72
2023/08/09 07:16:13;;;;;;;2.00;1.67;;;;;;;29.97;44.34;101592.06;5044631;28;20124;-72
2023/08/09 07:18:39;;;;;;;3.28;1.52;;;;;;;30.80;42.37;101590.63;5029374;28;20036;-72
2023/08/09 07:21:04;;;;;;;3.28;1.73;;;;;;;28.99;45.36;101596.03;5028528;28;20036;-72
2023/08/09 07:23:31;;;;;;;3.95;1.55;;;;;;;30.45;42.13;101591.75;5029539;28;20033;-72
2023/08/09 07:25:56;;;;;;;2.50;1.55;;;;;;;31.07;41.61;101592.84;5025845;28;20170;-72
2023/08/09 07:28:22;;;;;;;3.10;2.22;;;;;;;30.56;41.96;101601.66;5025326;28;20029;-71
2023/08/09 07:30:51;;;;;;;1.75;1.23;;;;;;;30.72;41.47;101598.50;5013455;28;20022;-72
2023/08/09 07:33:16;;;;;;;2.83;1.45;;;;;;;29.74;43.64;101613.56;5046204;28;20049;-72
2023/08/09 07:35:42;;;;;;;2.55;1.65;;;;;;;29.86;43.18;101601.00;5028855;28;20017;-72
2023/08/09 07:38:07;;;;;;;2.85;1.70;;;;;;;29.55;44.22;101612.34;5030024;28;20481;-72
2023/08/09 07:40:33;;;;;;;3.40;1.67;;;;;;;30.22;42.74;101610.63;5045752;28;20415;-72
2023/08/09 07:43:00;;;;;;;5.05;1.60;;;;;;;30.80;41.73;101617.59;5027680;28;20036;-72
2023/08/09 07:45:25;;;;;;;2.55;1.63;;;;;;;29.35;42.83;101618.44;5027657;28;20029;-73
2023/08/09 07:47:51;;;;;;;3.15;1.83;;;;;;;31.04;40.59;101609.31;5008769;28;20124;-72
2023/08/09 07:50:17;;;;;;;4.57;1.92;;;;;;;31.32;40.35;101608.78;5012872;28;20393;-72
2023/08/09 07:52:42;;;;;;;1.38;1.27;;;;;;;30.05;42.07;101616.56;5022006;28;20487;-72
2023/08/09 07:55:10;;;;;;;4.18;1.50;;;;;;;31.27;41.48;101612.75;5017322;28;20025;-72
2023/08/09 07:57:36;;;;;;;1.55;1.20;;;;;;;30.46;40.46;101625.84;5026788;28;20061;-72
2023/08/09 08:00:12;;;;;;;1.63;1.30;;;;;;;32.57;39.66;101635.63;5030662;28;20021;-72
2023/08/09 08:02:41;;;;;;;4.20;1.17;;;;;;;31.03;41.50;101639.97;5014798;28;20034;-73
2023/08/09 08:05:07;;;;;;;1.52;1.02;;;;;;;31.72;39.83;101635.06;5010109;28;20041;-73
2023/08/09 08:07:33;;;;;;;3.55;1.30;;;;;;;31.94;38.85;101634.00;5031115;28;20017;-72
2023/08/09 08:09:58;;;;;;;2.40;1.45;;;;;;;31.97;38.00;101637.31;5022062;28;20033;-72
2023/08/09 08:12:26;;;;;;;1.63;1.02;;;;;;;30.61;40.13;101640.75;5028067;28;20465;-72
2023/08/09 08:14:54;;;;;;;2.50;1.10;;;;;;;31.03;38.72;101644.53;5027420;28;20025;-72
2023/08/09 08:17:19;;;;;;;1.00;0.90;;;;;;;30.60;39.17;101648.97;5012547;28;20394;-72
2023/08/09 08:19:45;;;;;;;2.33;1.42;;;;;;;30.09;41.28;101640.44;5026651;28;20033;-72
2023/08/09 08:22:10;;;;;;;1.05;0.95;;;;;;;27.94;44.83;101652.91;5017789;28;20144;-72
2023/08/09 08:24:36;;;;;;;1.45;1.23;;;;;;;27.85;45.86;101645.50;5024156;28;20032;-72
2023/08/09 08:27:01;;;;;;;1.30;0.75;;;;;;;29.49;41.60;101647.81;5024484;28;20029;-72
2023/08/09 08:29:27;;;;;;;1.27;0.90;;;;;;;29.61;42.36;101657.63;5020270;28;20062;-73
2023/08/09 08:31:52;;;;;;;4.03;1.00;;;;;;;30.85;39.38;101653.16;5036784;28;20075;-72
2023/08/09 08:34:21;;;;;;;1.45;1.00;;;;;;;31.94;37.27;101651.09;5027742;28;20059;-72
2023/08/09 08:36:48;;;;;;;1.45;1.00;;;;;;;31.40;37.95;101669.25;5027081;28;20040;-72
2023/08/09 08:39:15;;;;;;;1.60;1.05;;;;;;;31.53;36.87;101665.47;5027795;28;20029;-72
2023/08/09 08:41:45;;;;;;;1.23;1.00;;;;;;;33.42;35.58;101660.31;5027721;28;20029;-73
2023/08/09 08:44:11;;;;;;;3.60;1.10;;;;;;;31.68;37.67;101660.63;5009010;28;20435;-72
2023/08/09 08:46:37;;;;;;;1.63;1.10;;;;;;;30.72;38.59;101668.66;5037691;28;20033;-72
2023/08/09 08:49:04;;;;;;;3.28;0.90;;;;;;;28.01;42.42;101675.69;5033890;28;20045;-73
2023/08/09 08:51:31;;;;;;;1.50;1.27;;;;;;;27.18;44.67;101676.84;5031931;28;20128;-73
2023/08/09 08:53:57;;;;;;;2.83;1.40;;;;;;;26.67;46.50;101677.50;5031259;28;20025;-73
2023/08/09 08:56:23;;;;;;;3.90;1.13;;;;;;;27.63;45.26;101681.03;5050035;28;20045;-73
2023/08/09 08:58:48;;;;;;;1.67;1.58;;;;;;;25.97;49.54;101693.53;5033349;28;20021;-72
2023/08/09 09:01:15;;;;;;;3.08;1.80;;;;;;;29.20;44.31;101685.88;5032729;28;20030;-72
2023/08/09 09:03:40;;;;;;;5.47;1.90;;;;;;;29.10;42.64;101682.19;5032049;28;20108;-72
2023/08/09 09:06:05;;;;;;;1.70;1.40;;;;;;;28.08;42.41;101692.25;5033327;28;20092;-72
2023/08/09 09:08:40;;;;;;;1.50;1.38;;;;;;;29.73;40.31;101695.34;5032295;28;20100;-73
2023/08/09 09:11:14;;;;;;;3.00;1.55;;;;;;;30.34;37.66;101696.91;5016938;28;20038;-73
2023/08/09 09:13:39;;;;;;;1.42;1.33;;;;;;;30.58;37.31;101689.56;5031817;28;20037;-72
2023/08/09 09:16:05;;;;;;;2.65;1.65;;;;;;;29.90;39.20;101697.63;5027971;28;20039;-71
2023/08/09 09:18:31;;;;;;;2.05;1.60;;;;;;;30.10;38.07;101700.56;5032686;28;20535;-73
2023/08/09 09:20:56;;;;;;;2.97;1.92;;;;;;;28.50;40.07;101698.19;5030612;28;20087;-73
2023/08/09 09:23:27;;;;;;;3.35;1.75;;;;;;;29.92;39.71;101690.28;5031996;28;20033;-73
2023/08/09 09:26:03;;;;;;;1.55;1.45;;;;;;;29.53;38.88;101687.00;5021040;28;20088;-73
2023/08/09 09:28:29;;;;;;;3.22;1.30;;;;;;;30.67;38.74;101678.97;5028302;28;20087;-73
2023/08/09 09:30:58;;;;;;;1.42;0.90;;;;;;;30.23;38.80;101684.28;5031502;28;20145;-72
2023/08/09 09:33:35;;;;;;;1.75;1.02;;;;;;;30.39;36.73;101689.28;5031782;28;20067;-73
2023/08/09 09:36:02;;;;;;;23.85;3.03;;;;;;;30.88;36.59;101690.66;5047409;28;20044;-73
2023/08/09 09:38:29;;;;;;;2.67;1.25;;;;;;;29.55;36.64;101701.22;5011812;28;20094;-73
2023/08/09 09:40:56;;;;;;;2.03;1.27;;;;;;;30.54;36.30;101690.78;5016212;28;20351;-72
2023/08/09 09:43:22;;;;;;;2.38;1.13;;;;;;;29.73;37.13;101685.47;5031958;28;20045;-73
2023/08/09 09:45:52;;;;;;;3.38;1.35;;;;;;;30.13;37.48;101681.47;5030631;28;20037;-73
2023/08/09 09:48:18;;;;;;;2.70;1.15;;;;;;;30.39;36.14;101689.28;5027563;28;20033;-73
2023/08/09 09:50:44;;;;;;;2.88;0.98;;;;;;;30.50;36.69;101681.22;5020016;28;20385;-73
2023/08/09 09:53:14;;;;;;;2.63;1.05;;;;;;;30.50;35.38;101675.84;5043433;28;20028;-73
2023/08/09 09:55:40;;;;;;;2.70;1.02;;;;;;;29.77;39.21;101688.75;5031875;28;20053;-73
2023/08/09 09:58:06;;;;;;;1.80;0.80;;;;;;;28.52;40.27;101696.28;5046928;28;20039;-73
2023/08/09 10:00:32;;;;;;;4.43;1.70;;;;;;;26.32;42.21;101704.72;5038192;28;20021;-73
2023/08/09 10:03:02;;;;;;;1.75;0.95;;;;;;;27.26;41.75;101712.09;5025569;28;20087;-73
2023/08/09 10:05:36;;;;;;;3.83;0.80;;;;;;;26.94;43.20;101718.72;5031753;28;20033;-73
2023/08/09 10:08:08;;;;;;;3.30;0.80;;;;;;;28.73;40.89;101717.22;5032141;28;20501;-72
2023/08/09 10:10:38;;;;;;;0.80;0.73;;;;;;;28.13;40.72;101703.53;5033432;28;20029;-73
2023/08/09 10:13:05;;;;;;;2.70;1.10;;;;;;;28.91;40.79;101726.59;5037455;28;20030;-73
2023/08/09 10:15:38;;;;;;;1.33;0.65;;;;;;;27.03;42.04;101732.41;5013032;28;20033;-72
2023/08/09 10:18:30;;;;;;;;;;;;;;;27.67;40.43;101733.56;5025848;28;20025;-73
2023/08/09 10:20:58;;;;;;;3.92;0.88;;;;;;;27.93;39.77;101731.75;5030787;28;19979;-73
2023/08/09 10:23:30;;;;;;;3.75;0.60;;;;;;;27.11;42.38;101723.84;5030465;28;20032;-72
2023/08/09 10:25:56;;;;;;;3.57;0.77;;;;;;;26.67;42.05;101738.31;5030844;28;20035;-73
2023/08/09 10:28:45;;;;;;;3.63;1.67;;;;;;;28.12;40.21;101728.69;5038886;28;20346;-72
2023/08/09 10:31:13;;;;;;;0.85;0.82;;;;;;;27.42;41.75;101740.59;5022869;28;20044;-72
2023/08/09 10:33:42;;;;;;;2.53;1.23;;;;;;;27.90;39.32;101737.34;5030020;28;20088;-72
2023/08/09 10:36:10;;;;;;;2.67;1.00;;;;;;;28.71;38.85;101744.19;5057564;28;20040;-72
2023/08/09 10:38:35;;;;;;;6.32;1.58;;;;;;;28.49;37.95;101747.56;5028549;28;20068;-72
2023/08/09 10:41:08;;;;;;;0.65;0.52;;;;;;;27.55;39.29;101744.19;5032549;28;20061;-73
2023/08/09 10:43:33;;;;;;;4.32;1.05;;;;;;;27.93;39.85;101753.25;5031463;28;20075;-72
2023/08/09 10:46:20;;;;;;;1.80;0.80;;;;;;;27.68;38.87;101743.34;5029038;28;20477;-72
2023/08/09 10:48:50;;;;;;;3.40;0.70;;;;;;;28.57;37.17;101761.31;5031167;28;20029;-72
2023/08/09 10:51:15;;;;;;;5.75;1.10;;;;;;;27.75;38.77;101750.00;5030072;28;20029;-73
2023/08/09 10:53:58;;;;;;;2.25;0.90;;;;;;;28.32;37.37;101747.94;5026807;28;20079;-72
2023/08/09 10:56:30;;;;;;;;;;;;;;;28.86;37.43;101747.59;5046019;28;20057;-72
2023/08/09 10:59:05;;;;;;;1.05;0.70;;;;;;;27.09;39.45;101755.28;5032911;28;19923;-73
2023/08/09 11:01:33;;;;;;;4.88;1.00;;;;;;;27.33;38.15;101762.69;5031770;28;20083;-73
2023/08/09 11:03:59;;;;;;;1.13;0.60;;;;;;;27.18;37.56;101762.72;5031970;28;20129;-72
2023/08/09 11:06:41;;;;;;;2.92;0.75;;;;;;;27.83;37.99;101763.78;5029867;28;20533;-73
2023/08/09 11:09:12;;;;;;;2.33;0.68;;;;;;;27.24;37.99;101767.69;5025725;28;20397;-73
2023/08/09 11:11:40;;;;;;;0.60;0.43;;;;;;;27.91;37.71;101765.94;5026411;28;20097;-72
2023/08/09 11:14:07;;;;;;;1.10;0.60;;;;;;;28.02;38.48;101778.66;5045773;28;20022;-73
2023/08/09 11:16:33;;;;;;;2.20;0.73;;;;;;;26.97;39.27;101772.16;5021661;28;20033;-72
2023/08/09 11:19:04;;;;;;;3.38;0.60;;;;;;;27.21;39.37;101777.75;5010530;28;20022;-72
2023/08/09 11:21:40;;;;;;;0.95;0.50;;;;;;;26.10;40.91;101779.38;5044208;28;20033;-73